Terminal Aerodrome Forecast
Issued by NWS Twin Cities, MN

Home | Current Version | Previous Version | Text Only | Print | Product List | Glossary Off
Versions: 1 2 3 4 5 6 7 8 9 10 11 12 13 14

000
FTUS43 KMPX 180520
TAFEAU
TAF
KEAU 180520Z 1806/1906 25008KT P6SM SKC
     FM181000 27004KT 6SM BR SKC
     FM181300 25006KT P6SM SCT200
     FM190000 VRB02KT P6SM BKN200=

USA.gov is the U.S. government's official web portal to all federal, state and local government web resources and services.